sensor_id;sensor_type;location;lat;lon;timestamp;P1;durP1;ratioP1;P2;durP2;ratioP2
23302;SDS011;11820;48.738;9.092;2023-05-01T00:01:49;4.83;;;3.80;;
23302;SDS011;11820;48.738;9.092;2023-05-01T00:04:14;4.80;;;4.40;;
23302;SDS011;11820;48.738;9.092;2023-05-01T00:06:40;4.73;;;4.33;;
23302;SDS011;11820;48.738;9.092;2023-05-01T00:09:06;4.10;;;3.70;;
23302;SDS011;11820;48.738;9.092;2023-05-01T00:11:31;4.83;;;3.90;;
23302;SDS011;11820;48.738;9.092;2023-05-01T00:13:56;4.43;;;4.03;;
23302;SDS011;11820;48.738;9.092;2023-05-01T00:16:22;3.93;;;3.63;;
23302;SDS011;11820;48.738;9.092;2023-05-01T00:18:47;4.00;;;3.60;;
23302;SDS011;11820;48.738;9.092;2023-05-01T00:21:12;4.40;;;4.00;;
23302;SDS011;11820;48.738;9.092;2023-05-01T00:23:37;4.60;;;3.97;;
23302;SDS011;11820;48.738;9.092;2023-05-01T00:26:03;3.50;;;3.20;;
23302;SDS011;11820;48.738;9.092;2023-05-01T00:28:28;5.37;;;3.60;;
23302;SDS011;11820;48.738;9.092;2023-05-01T00:30:53;4.07;;;3.77;;
23302;SDS011;11820;48.738;9.092;2023-05-01T00:33:19;6.57;;;3.70;;
23302;SDS011;11820;48.738;9.092;2023-05-01T00:35:45;4.70;;;3.97;;
23302;SDS011;11820;48.738;9.092;2023-05-01T00:38:10;4.30;;;3.90;;
23302;SDS011;11820;48.738;9.092;2023-05-01T00:40:43;4.07;;;3.73;;
23302;SDS011;11820;48.738;9.092;2023-05-01T00:43:09;4.03;;;3.73;;
23302;SDS011;11820;48.738;9.092;2023-05-01T00:45:36;4.20;;;3.80;;
23302;SDS011;11820;48.738;9.092;2023-05-01T00:48:01;4.80;;;3.57;;
23302;SDS011;11820;48.738;9.092;2023-05-01T00:50:27;4.47;;;3.83;;
23302;SDS011;11820;48.738;9.092;2023-05-01T00:52:53;6.47;;;4.20;;
23302;SDS011;11820;48.738;9.092;2023-05-01T00:55:19;4.50;;;4.10;;
23302;SDS011;11820;48.738;9.092;2023-05-01T00:57:45;5.30;;;4.33;;
23302;SDS011;11820;48.738;9.092;2023-05-01T01:00:11;4.33;;;3.93;;
23302;SDS011;11820;48.738;9.092;2023-05-01T01:02:37;5.40;;;4.40;;
23302;SDS011;11820;48.738;9.092;2023-05-01T01:05:02;5.63;;;4.37;;
23302;SDS011;11820;48.738;9.092;2023-05-01T01:07:49;5.93;;;4.30;;
23302;SDS011;11820;48.738;9.092;2023-05-01T01:13:09;4.67;;;3.70;;
23302;SDS011;11820;48.738;9.092;2023-05-01T01:15:47;5.30;;;3.90;;
23302;SDS011;11820;48.738;9.092;2023-05-01T01:29:28;4.53;;;4.13;;
23302;SDS011;11820;48.738;9.092;2023-05-01T01:32:27;4.27;;;3.83;;
23302;SDS011;11820;48.738;9.092;2023-05-01T01:35:25;4.83;;;4.43;;
23302;SDS011;11820;48.738;9.092;2023-05-01T01:37:56;4.90;;;3.63;;
23302;SDS011;11820;48.738;9.092;2023-05-01T01:40:31;7.07;;;4.27;;
23302;SDS011;11820;48.738;9.092;2023-05-01T01:43:07;3.97;;;3.67;;
23302;SDS011;11820;48.738;9.092;2023-05-01T01:45:41;5.73;;;4.37;;
23302;SDS011;11820;48.738;9.092;2023-05-01T01:48:11;4.57;;;4.20;;
23302;SDS011;11820;48.738;9.092;2023-05-01T01:50:40;4.63;;;4.20;;
23302;SDS011;11820;48.738;9.092;2023-05-01T01:53:08;6.27;;;4.10;;
23302;SDS011;11820;48.738;9.092;2023-05-01T01:55:35;4.80;;;4.40;;
23302;SDS011;11820;48.738;9.092;2023-05-01T01:58:04;4.90;;;4.50;;
23302;SDS011;11820;48.738;9.092;2023-05-01T02:00:30;4.83;;;4.43;;
23302;SDS011;11820;48.738;9.092;2023-05-01T02:02:58;4.87;;;4.17;;
23302;SDS011;11820;48.738;9.092;2023-05-01T02:05:26;5.57;;;4.53;;
23302;SDS011;11820;48.738;9.092;2023-05-01T02:07:52;4.47;;;4.07;;
23302;SDS011;11820;48.738;9.092;2023-05-01T02:10:19;5.47;;;4.43;;
23302;SDS011;11820;48.738;9.092;2023-05-01T02:12:47;5.10;;;3.87;;
23302;SDS011;11820;48.738;9.092;2023-05-01T02:15:15;5.30;;;4.50;;
23302;SDS011;11820;48.738;9.092;2023-05-01T02:17:43;3.90;;;3.60;;
23302;SDS011;11820;48.738;9.092;2023-05-01T02:20:09;5.90;;;3.83;;
23302;SDS011;11820;48.738;9.092;2023-05-01T02:22:37;4.33;;;3.93;;
23302;SDS011;11820;48.738;9.092;2023-05-01T02:25:05;4.40;;;4.00;;
23302;SDS011;11820;48.738;9.092;2023-05-01T02:27:37;4.07;;;3.70;;
23302;SDS011;11820;48.738;9.092;2023-05-01T02:30:10;4.50;;;4.10;;
23302;SDS011;11820;48.738;9.092;2023-05-01T02:32:35;6.30;;;4.50;;
23302;SDS011;11820;48.738;9.092;2023-05-01T02:35:01;4.27;;;3.57;;
23302;SDS011;11820;48.738;9.092;2023-05-01T02:37:27;4.07;;;3.63;;
23302;SDS011;11820;48.738;9.092;2023-05-01T02:39:54;5.60;;;4.03;;
23302;SDS011;11820;48.738;9.092;2023-05-01T02:42:20;4.57;;;4.17;;
23302;SDS011;11820;48.738;9.092;2023-05-01T02:44:50;4.20;;;3.80;;
23302;SDS011;11820;48.738;9.092;2023-05-01T02:47:19;4.47;;;4.07;;
23302;SDS011;11820;48.738;9.092;2023-05-01T02:49:47;4.40;;;4.00;;
23302;SDS011;11820;48.738;9.092;2023-05-01T02:52:15;4.00;;;3.70;;
23302;SDS011;11820;48.738;9.092;2023-05-01T02:54:43;4.53;;;3.93;;
23302;SDS011;11820;48.738;9.092;2023-05-01T02:57:09;4.50;;;4.10;;
23302;SDS011;11820;48.738;9.092;2023-05-01T02:59:36;4.87;;;4.30;;
23302;SDS011;11820;48.738;9.092;2023-05-01T03:02:01;4.03;;;3.67;;
23302;SDS011;11820;48.738;9.092;2023-05-01T03:04:27;6.20;;;4.70;;
23302;SDS011;11820;48.738;9.092;2023-05-01T03:06:52;5.33;;;4.40;;
23302;SDS011;11820;48.738;9.092;2023-05-01T03:09:19;4.23;;;3.90;;
23302;SDS011;11820;48.738;9.092;2023-05-01T03:11:45;4.60;;;3.97;;
23302;SDS011;11820;48.738;9.092;2023-05-01T03:14:10;3.73;;;3.43;;
23302;SDS011;11820;48.738;9.092;2023-05-01T03:16:36;4.27;;;3.83;;
23302;SDS011;11820;48.738;9.092;2023-05-01T03:19:01;5.13;;;3.73;;
23302;SDS011;11820;48.738;9.092;2023-05-01T03:21:26;3.77;;;3.40;;
23302;SDS011;11820;48.738;9.092;2023-05-01T03:23:52;4.27;;;3.97;;
23302;SDS011;11820;48.738;9.092;2023-05-01T03:26:18;4.30;;;3.93;;
23302;SDS011;11820;48.738;9.092;2023-05-01T03:28:43;4.63;;;4.23;;
23302;SDS011;11820;48.738;9.092;2023-05-01T03:31:08;4.70;;;3.77;;
23302;SDS011;11820;48.738;9.092;2023-05-01T03:33:34;4.50;;;4.10;;
23302;SDS011;11820;48.738;9.092;2023-05-01T03:36:00;4.40;;;4.00;;
23302;SDS011;11820;48.738;9.092;2023-05-01T03:38:28;5.47;;;4.13;;
23302;SDS011;11820;48.738;9.092;2023-05-01T03:40:56;4.20;;;3.83;;
23302;SDS011;11820;48.738;9.092;2023-05-01T03:43:22;4.47;;;4.07;;
23302;SDS011;11820;48.738;9.092;2023-05-01T03:45:48;4.17;;;3.77;;
23302;SDS011;11820;48.738;9.092;2023-05-01T03:48:15;4.40;;;4.00;;
23302;SDS011;11820;48.738;9.092;2023-05-01T03:50:41;4.10;;;3.70;;
23302;SDS011;11820;48.738;9.092;2023-05-01T03:53:06;5.40;;;4.20;;
23302;SDS011;11820;48.738;9.092;2023-05-01T03:55:32;4.77;;;3.97;;
23302;SDS011;11820;48.738;9.092;2023-05-01T03:57:57;4.70;;;4.30;;
23302;SDS011;11820;48.738;9.092;2023-05-01T04:00:23;5.13;;;4.63;;
23302;SDS011;11820;48.738;9.092;2023-05-01T04:02:48;4.43;;;4.07;;
23302;SDS011;11820;48.738;9.092;2023-05-01T04:05:13;4.70;;;4.30;;
23302;SDS011;11820;48.738;9.092;2023-05-01T04:07:39;7.97;;;4.47;;
23302;SDS011;11820;48.738;9.092;2023-05-01T04:10:04;5.00;;;4.50;;
23302;SDS011;11820;48.738;9.092;2023-05-01T04:12:32;4.33;;;3.93;;
23302;SDS011;11820;48.738;9.092;2023-05-01T04:14:57;4.70;;;4.20;;
23302;SDS011;11820;48.738;9.092;2023-05-01T04:17:22;5.10;;;4.10;;
23302;SDS011;11820;48.738;9.092;2023-05-01T04:19:49;4.50;;;4.10;;
23302;SDS011;11820;48.738;9.092;2023-05-01T04:22:14;4.90;;;4.27;;
23302;SDS011;11820;48.738;9.092;2023-05-01T04:24:40;8.33;;;4.47;;
23302;SDS011;11820;48.738;9.092;2023-05-01T04:27:05;5.47;;;4.60;;
23302;SDS011;11820;48.738;9.092;2023-05-01T04:29:30;6.03;;;4.30;;
23302;SDS011;11820;48.738;9.092;2023-05-01T04:31:56;4.93;;;4.50;;
23302;SDS011;11820;48.738;9.092;2023-05-01T04:34:21;4.60;;;4.20;;
23302;SDS011;11820;48.738;9.092;2023-05-01T04:36:46;5.10;;;4.60;;
23302;SDS011;11820;48.738;9.092;2023-05-01T04:39:12;5.47;;;4.83;;
23302;SDS011;11820;48.738;9.092;2023-05-01T04:41:37;6.30;;;5.20;;
23302;SDS011;11820;48.738;9.092;2023-05-01T04:44:02;6.37;;;4.47;;
23302;SDS011;11820;48.738;9.092;2023-05-01T04:46:28;6.20;;;5.20;;
23302;SDS011;11820;48.738;9.092;2023-05-01T04:48:53;5.43;;;4.93;;
23302;SDS011;11820;48.738;9.092;2023-05-01T04:51:18;6.37;;;5.43;;
23302;SDS011;11820;48.738;9.092;2023-05-01T04:53:44;11.67;;;5.77;;
23302;SDS011;11820;48.738;9.092;2023-05-01T04:56:09;6.97;;;5.60;;
23302;SDS011;11820;48.738;9.092;2023-05-01T04:58:35;5.20;;;4.70;;
23302;SDS011;11820;48.738;9.092;2023-05-01T05:01:00;5.77;;;5.23;;
23302;SDS011;11820;48.738;9.092;2023-05-01T05:03:25;6.03;;;5.43;;
23302;SDS011;11820;48.738;9.092;2023-05-01T05:05:51;5.30;;;4.80;;
23302;SDS011;11820;48.738;9.092;2023-05-01T05:08:16;5.80;;;5.30;;
23302;SDS011;11820;48.738;9.092;2023-05-01T05:10:41;8.03;;;5.73;;
23302;SDS011;11820;48.738;9.092;2023-05-01T05:13:07;6.07;;;5.20;;
23302;SDS011;11820;48.738;9.092;2023-05-01T05:15:33;8.30;;;5.47;;
23302;SDS011;11820;48.738;9.092;2023-05-01T05:17:59;7.47;;;5.50;;
23302;SDS011;11820;48.738;9.092;2023-05-01T05:20:24;5.70;;;5.20;;
23302;SDS011;11820;48.738;9.092;2023-05-01T05:22:50;6.00;;;5.47;;
23302;SDS011;11820;48.738;9.092;2023-05-01T05:25:16;7.20;;;5.80;;
23302;SDS011;11820;48.738;9.092;2023-05-01T05:27:41;6.53;;;5.30;;
23302;SDS011;11820;48.738;9.092;2023-05-01T05:30:07;7.10;;;6.07;;
23302;SDS011;11820;48.738;9.092;2023-05-01T05:32:33;7.70;;;5.70;;
23302;SDS011;11820;48.738;9.092;2023-05-01T05:34:58;6.93;;;6.13;;
23302;SDS011;11820;48.738;9.092;2023-05-01T05:37:24;6.67;;;5.67;;
23302;SDS011;11820;48.738;9.092;2023-05-01T05:39:50;7.30;;;5.90;;
23302;SDS011;11820;48.738;9.092;2023-05-01T05:42:16;7.63;;;6.27;;
23302;SDS011;11820;48.738;9.092;2023-05-01T05:44:41;7.03;;;6.30;;
23302;SDS011;11820;48.738;9.092;2023-05-01T05:47:06;6.20;;;5.70;;
23302;SDS011;11820;48.738;9.092;2023-05-01T05:49:32;6.33;;;5.67;;
23302;SDS011;11820;48.738;9.092;2023-05-01T05:51:57;5.40;;;5.00;;
23302;SDS011;11820;48.738;9.092;2023-05-01T05:54:22;5.47;;;4.97;;
23302;SDS011;11820;48.738;9.092;2023-05-01T05:56:48;5.23;;;4.57;;
23302;SDS011;11820;48.738;9.092;2023-05-01T05:59:13;5.47;;;4.97;;
23302;SDS011;11820;48.738;9.092;2023-05-01T06:01:38;5.07;;;4.63;;
23302;SDS011;11820;48.738;9.092;2023-05-01T06:04:04;5.47;;;4.97;;
23302;SDS011;11820;48.738;9.092;2023-05-01T06:06:30;6.37;;;5.80;;
23302;SDS011;11820;48.738;9.092;2023-05-01T06:08:57;5.70;;;5.20;;
23302;SDS011;11820;48.738;9.092;2023-05-01T06:11:22;7.63;;;6.30;;
23302;SDS011;11820;48.738;9.092;2023-05-01T06:13:48;5.93;;;5.43;;
23302;SDS011;11820;48.738;9.092;2023-05-01T06:16:13;7.93;;;7.13;;
23302;SDS011;11820;48.738;9.092;2023-05-01T06:18:39;9.27;;;6.50;;
23302;SDS011;11820;48.738;9.092;2023-05-01T06:21:05;7.87;;;7.17;;
23302;SDS011;11820;48.738;9.092;2023-05-01T06:23:30;8.37;;;6.53;;
23302;SDS011;11820;48.738;9.092;2023-05-01T06:25:57;8.07;;;6.07;;
23302;SDS011;11820;48.738;9.092;2023-05-01T06:28:22;7.33;;;6.47;;
23302;SDS011;11820;48.738;9.092;2023-05-01T06:30:48;6.97;;;6.30;;
23302;SDS011;11820;48.738;9.092;2023-05-01T06:33:13;6.60;;;6.00;;
23302;SDS011;11820;48.738;9.092;2023-05-01T06:35:38;7.80;;;5.97;;
23302;SDS011;11820;48.738;9.092;2023-05-01T06:38:04;7.23;;;6.57;;
23302;SDS011;11820;48.738;9.092;2023-05-01T06:40:29;6.37;;;5.77;;
23302;SDS011;11820;48.738;9.092;2023-05-01T06:42:56;6.13;;;5.63;;
23302;SDS011;11820;48.738;9.092;2023-05-01T06:45:21;6.17;;;5.57;;
23302;SDS011;11820;48.738;9.092;2023-05-01T06:47:47;6.70;;;6.00;;
23302;SDS011;11820;48.738;9.092;2023-05-01T06:50:12;6.50;;;5.87;;
23302;SDS011;11820;48.738;9.092;2023-05-01T06:52:38;6.80;;;6.10;;
23302;SDS011;11820;48.738;9.092;2023-05-01T06:55:04;6.93;;;6.23;;
23302;SDS011;11820;48.738;9.092;2023-05-01T06:57:30;6.03;;;5.53;;
23302;SDS011;11820;48.738;9.092;2023-05-01T06:59:55;7.03;;;6.43;;
23302;SDS011;11820;48.738;9.092;2023-05-01T07:02:20;5.77;;;5.27;;
23302;SDS011;11820;48.738;9.092;2023-05-01T07:04:46;6.30;;;5.60;;
23302;SDS011;11820;48.738;9.092;2023-05-01T07:07:11;7.87;;;5.80;;
23302;SDS011;11820;48.738;9.092;2023-05-01T07:09:36;5.80;;;5.20;;
23302;SDS011;11820;48.738;9.092;2023-05-01T07:12:02;6.27;;;5.67;;
23302;SDS011;11820;48.738;9.092;2023-05-01T07:14:29;5.13;;;4.73;;
23302;SDS011;11820;48.738;9.092;2023-05-01T07:16:54;6.17;;;5.30;;
23302;SDS011;11820;48.738;9.092;2023-05-01T07:19:20;5.57;;;5.07;;
23302;SDS011;11820;48.738;9.092;2023-05-01T07:21:45;6.97;;;5.53;;
23302;SDS011;11820;48.738;9.092;2023-05-01T07:24:11;5.73;;;5.17;;
23302;SDS011;11820;48.738;9.092;2023-05-01T07:26:36;6.27;;;5.67;;
23302;SDS011;11820;48.738;9.092;2023-05-01T07:29:02;5.63;;;5.13;;
23302;SDS011;11820;48.738;9.092;2023-05-01T07:31:28;5.90;;;5.33;;
23302;SDS011;11820;48.738;9.092;2023-05-01T07:33:53;8.10;;;5.20;;
23302;SDS011;11820;48.738;9.092;2023-05-01T07:36:19;5.30;;;4.80;;
23302;SDS011;11820;48.738;9.092;2023-05-01T07:38:46;5.93;;;5.43;;
23302;SDS011;11820;48.738;9.092;2023-05-01T07:41:11;5.57;;;4.90;;
23302;SDS011;11820;48.738;9.092;2023-05-01T07:43:37;5.00;;;4.60;;
23302;SDS011;11820;48.738;9.092;2023-05-01T07:46:02;5.33;;;4.83;;
23302;SDS011;11820;48.738;9.092;2023-05-01T07:48:27;6.33;;;5.83;;
23302;SDS011;11820;48.738;9.092;2023-05-01T07:50:53;7.13;;;5.73;;
23302;SDS011;11820;48.738;9.092;2023-05-01T07:53:19;6.00;;;5.40;;
23302;SDS011;11820;48.738;9.092;2023-05-01T07:55:44;6.90;;;5.83;;
23302;SDS011;11820;48.738;9.092;2023-05-01T07:58:09;7.27;;;5.23;;
23302;SDS011;11820;48.738;9.092;2023-05-01T08:00:35;6.40;;;5.80;;
23302;SDS011;11820;48.738;9.092;2023-05-01T08:03:00;6.73;;;6.13;;
23302;SDS011;11820;48.738;9.092;2023-05-01T08:05:26;5.93;;;5.40;;
23302;SDS011;11820;48.738;9.092;2023-05-01T08:07:51;6.13;;;5.53;;
23302;SDS011;11820;48.738;9.092;2023-05-01T08:10:16;6.27;;;5.67;;
23302;SDS011;11820;48.738;9.092;2023-05-01T08:12:41;6.43;;;5.20;;
23302;SDS011;11820;48.738;9.092;2023-05-01T08:15:07;5.87;;;5.13;;
23302;SDS011;11820;48.738;9.092;2023-05-01T08:17:34;5.63;;;5.13;;
23302;SDS011;11820;48.738;9.092;2023-05-01T08:19:59;7.43;;;5.43;;
23302;SDS011;11820;48.738;9.092;2023-05-01T08:22:25;5.30;;;4.90;;
23302;SDS011;11820;48.738;9.092;2023-05-01T08:24:50;5.30;;;4.83;;
23302;SDS011;11820;48.738;9.092;2023-05-01T08:27:16;5.17;;;4.40;;
23302;SDS011;11820;48.738;9.092;2023-05-01T08:29:41;5.67;;;5.10;;
23302;SDS011;11820;48.738;9.092;2023-05-01T08:32:06;5.90;;;4.90;;
23302;SDS011;11820;48.738;9.092;2023-05-01T08:34:32;6.07;;;5.57;;
23302;SDS011;11820;48.738;9.092;2023-05-01T08:36:57;6.57;;;5.33;;
23302;SDS011;11820;48.738;9.092;2023-05-01T08:39:23;5.10;;;4.60;;
23302;SDS011;11820;48.738;9.092;2023-05-01T08:41:49;5.13;;;4.60;;
23302;SDS011;11820;48.738;9.092;2023-05-01T08:44:14;6.27;;;5.27;;
23302;SDS011;11820;48.738;9.092;2023-05-01T08:46:52;6.60;;;4.90;;
23302;SDS011;11820;48.738;9.092;2023-05-01T08:49:31;5.07;;;4.57;;
23302;SDS011;11820;48.738;9.092;2023-05-01T08:51:58;5.20;;;4.70;;
23302;SDS011;11820;48.738;9.092;2023-05-01T08:54:26;5.33;;;4.83;;
23302;SDS011;11820;48.738;9.092;2023-05-01T08:56:52;4.67;;;4.27;;
23302;SDS011;11820;48.738;9.092;2023-05-01T08:59:19;5.23;;;4.73;;
23302;SDS011;11820;48.738;9.092;2023-05-01T09:01:47;5.90;;;4.30;;
23302;SDS011;11820;48.738;9.092;2023-05-01T09:04:14;5.10;;;4.60;;
23302;SDS011;11820;48.738;9.092;2023-05-01T09:06:41;5.07;;;4.67;;
23302;SDS011;11820;48.738;9.092;2023-05-01T09:09:08;7.33;;;4.93;;
23302;SDS011;11820;48.738;9.092;2023-05-01T09:11:34;4.57;;;4.27;;
23302;SDS011;11820;48.738;9.092;2023-05-01T09:14:01;6.20;;;4.80;;
23302;SDS011;11820;48.738;9.092;2023-05-01T09:16:29;4.73;;;4.33;;
23302;SDS011;11820;48.738;9.092;2023-05-01T09:18:55;6.13;;;4.73;;
23302;SDS011;11820;48.738;9.092;2023-05-01T09:21:23;5.82;;;5.00;;
23302;SDS011;11820;48.738;9.092;2023-05-01T09:23:49;6.80;;;4.70;;
23302;SDS011;11820;48.738;9.092;2023-05-01T09:26:15;6.53;;;4.83;;
23302;SDS011;11820;48.738;9.092;2023-05-01T09:28:42;5.10;;;4.60;;
23302;SDS011;11820;48.738;9.092;2023-05-01T09:31:28;5.40;;;4.90;;
23302;SDS011;11820;48.738;9.092;2023-05-01T09:36:23;4.70;;;4.30;;
23302;SDS011;11820;48.738;9.092;2023-05-01T09:38:50;4.93;;;4.47;;
23302;SDS011;11820;48.738;9.092;2023-05-01T09:41:15;4.50;;;4.10;;
23302;SDS011;11820;48.738;9.092;2023-05-01T09:43:41;5.10;;;4.70;;
23302;SDS011;11820;48.738;9.092;2023-05-01T09:46:13;5.10;;;4.70;;
23302;SDS011;11820;48.738;9.092;2023-05-01T09:48:39;4.90;;;4.30;;
23302;SDS011;11820;48.738;9.092;2023-05-01T09:54:00;4.30;;;3.90;;
23302;SDS011;11820;48.738;9.092;2023-05-01T09:56:27;5.10;;;4.70;;
23302;SDS011;11820;48.738;9.092;2023-05-01T09:58:54;4.70;;;3.77;;
23302;SDS011;11820;48.738;9.092;2023-05-01T10:01:43;4.40;;;4.00;;
23302;SDS011;11820;48.738;9.092;2023-05-01T10:04:11;3.80;;;3.50;;
23302;SDS011;11820;48.738;9.092;2023-05-01T10:06:37;3.23;;;2.93;;
23302;SDS011;11820;48.738;9.092;2023-05-01T10:09:03;3.90;;;3.57;;
23302;SDS011;11820;48.738;9.092;2023-05-01T10:11:46;4.13;;;3.57;;
23302;SDS011;11820;48.738;9.092;2023-05-01T10:14:12;4.80;;;3.85;;
23302;SDS011;11820;48.738;9.092;2023-05-01T10:16:37;3.83;;;3.53;;
23302;SDS011;11820;48.738;9.092;2023-05-01T10:19:03;5.53;;;4.07;;
23302;SDS011;11820;48.738;9.092;2023-05-01T10:21:29;5.63;;;4.20;;
23302;SDS011;11820;48.738;9.092;2023-05-01T10:23:59;4.50;;;3.87;;
23302;SDS011;11820;48.738;9.092;2023-05-01T10:26:29;6.20;;;3.63;;
23302;SDS011;11820;48.738;9.092;2023-05-01T10:28:56;4.13;;;3.73;;
23302;SDS011;11820;48.738;9.092;2023-05-01T10:31:23;5.67;;;4.03;;
23302;SDS011;11820;48.738;9.092;2023-05-01T10:33:50;5.50;;;3.80;;
23302;SDS011;11820;48.738;9.092;2023-05-01T10:36:20;6.07;;;3.40;;
23302;SDS011;11820;48.738;9.092;2023-05-01T10:38:49;4.70;;;3.70;;
23302;SDS011;11820;48.738;9.092;2023-05-01T10:41:15;4.20;;;3.80;;
23302;SDS011;11820;48.738;9.092;2023-05-01T10:43:41;4.20;;;3.80;;
23302;SDS011;11820;48.738;9.092;2023-05-01T10:53:39;6.23;;;3.57;;
23302;SDS011;11820;48.738;9.092;2023-05-01T10:56:14;4.60;;;3.43;;
23302;SDS011;11820;48.738;9.092;2023-05-01T10:58:59;3.60;;;3.30;;
23302;SDS011;11820;48.738;9.092;2023-05-01T11:01:35;4.70;;;3.87;;
23302;SDS011;11820;48.738;9.092;2023-05-01T11:12:12;6.70;;;4.97;;
23302;SDS011;11820;48.738;9.092;2023-05-01T11:20:03;6.27;;;5.67;;
23302;SDS011;11820;48.738;9.092;2023-05-01T11:22:29;6.27;;;5.67;;
23302;SDS011;11820;48.738;9.092;2023-05-01T11:24:55;6.80;;;6.20;;
23302;SDS011;11820;48.738;9.092;2023-05-01T11:27:21;7.03;;;6.27;;
23302;SDS011;11820;48.738;9.092;2023-05-01T11:29:46;6.47;;;5.83;;
23302;SDS011;11820;48.738;9.092;2023-05-01T11:32:15;8.17;;;5.93;;
23302;SDS011;11820;48.738;9.092;2023-05-01T11:34:42;6.47;;;5.87;;
23302;SDS011;11820;48.738;9.092;2023-05-01T11:37:08;7.30;;;6.60;;
23302;SDS011;11820;48.738;9.092;2023-05-01T11:39:34;6.73;;;6.13;;
23302;SDS011;11820;48.738;9.092;2023-05-01T11:42:08;7.30;;;6.60;;
23302;SDS011;11820;48.738;9.092;2023-05-01T11:44:34;8.27;;;6.70;;
23302;SDS011;11820;48.738;9.092;2023-05-01T11:46:59;7.00;;;6.40;;
23302;SDS011;11820;48.738;9.092;2023-05-01T11:49:27;8.27;;;6.77;;
23302;SDS011;11820;48.738;9.092;2023-05-01T11:51:56;8.47;;;6.73;;
23302;SDS011;11820;48.738;9.092;2023-05-01T11:54:22;8.53;;;7.67;;
23302;SDS011;11820;48.738;9.092;2023-05-01T11:56:48;7.80;;;7.10;;
23302;SDS011;11820;48.738;9.092;2023-05-01T11:59:22;9.57;;;7.20;;
23302;SDS011;11820;48.738;9.092;2023-05-01T12:01:47;9.23;;;7.43;;
23302;SDS011;11820;48.738;9.092;2023-05-01T12:04:21;7.77;;;7.07;;
23302;SDS011;11820;48.738;9.092;2023-05-01T12:06:49;7.30;;;6.60;;
23302;SDS011;11820;48.738;9.092;2023-05-01T12:09:15;8.10;;;7.30;;
23302;SDS011;11820;48.738;9.092;2023-05-01T12:11:42;7.53;;;6.83;;
23302;SDS011;11820;48.738;9.092;2023-05-01T12:14:09;7.43;;;6.63;;
23302;SDS011;11820;48.738;9.092;2023-05-01T12:16:35;6.93;;;6.30;;
23302;SDS011;11820;48.738;9.092;2023-05-01T12:19:01;7.53;;;6.83;;
23302;SDS011;11820;48.738;9.092;2023-05-01T12:21:28;7.33;;;6.57;;
23302;SDS011;11820;48.738;9.092;2023-05-01T12:23:53;7.87;;;6.43;;
23302;SDS011;11820;48.738;9.092;2023-05-01T12:26:19;7.40;;;6.80;;
23302;SDS011;11820;48.738;9.092;2023-05-01T12:28:59;7.10;;;6.50;;
23302;SDS011;11820;48.738;9.092;2023-05-01T12:31:26;6.47;;;5.93;;
23302;SDS011;11820;48.738;9.092;2023-05-01T12:33:53;7.03;;;6.43;;
23302;SDS011;11820;48.738;9.092;2023-05-01T12:36:23;7.47;;;6.77;;
23302;SDS011;11820;48.738;9.092;2023-05-01T12:38:58;6.77;;;6.17;;
23302;SDS011;11820;48.738;9.092;2023-05-01T12:41:34;8.20;;;7.23;;
23302;SDS011;11820;48.738;9.092;2023-05-01T12:44:18;6.83;;;6.07;;
23302;SDS011;11820;48.738;9.092;2023-05-01T12:46:45;6.47;;;5.87;;
23302;SDS011;11820;48.738;9.092;2023-05-01T12:49:17;6.83;;;6.13;;
23302;SDS011;11820;48.738;9.092;2023-05-01T12:51:49;7.00;;;6.27;;
23302;SDS011;11820;48.738;9.092;2023-05-01T12:54:17;6.50;;;5.90;;
23302;SDS011;11820;48.738;9.092;2023-05-01T12:56:44;6.80;;;6.20;;
23302;SDS011;11820;48.738;9.092;2023-05-01T12:59:20;7.80;;;7.00;;
23302;SDS011;11820;48.738;9.092;2023-05-01T13:01:47;6.40;;;5.80;;
23302;SDS011;11820;48.738;9.092;2023-05-01T13:04:19;6.73;;;6.03;;
23302;SDS011;11820;48.738;9.092;2023-05-01T13:06:48;10.33;;;7.23;;
23302;SDS011;11820;48.738;9.092;2023-05-01T13:09:13;7.17;;;6.57;;
23302;SDS011;11820;48.738;9.092;2023-05-01T13:11:41;7.23;;;6.53;;
23302;SDS011;11820;48.738;9.092;2023-05-01T13:14:06;7.23;;;6.53;;
23302;SDS011;11820;48.738;9.092;2023-05-01T13:16:33;6.93;;;6.23;;
23302;SDS011;11820;48.738;9.092;2023-05-01T13:18:58;8.07;;;7.27;;
23302;SDS011;11820;48.738;9.092;2023-05-01T13:21:24;7.20;;;6.50;;
23302;SDS011;11820;48.738;9.092;2023-05-01T13:23:51;8.03;;;7.03;;
23302;SDS011;11820;48.738;9.092;2023-05-01T13:26:29;6.93;;;6.30;;
23302;SDS011;11820;48.738;9.092;2023-05-01T13:28:56;6.70;;;6.10;;
23302;SDS011;11820;48.738;9.092;2023-05-01T13:31:24;7.10;;;6.40;;
23302;SDS011;11820;48.738;9.092;2023-05-01T13:33:50;7.13;;;6.17;;
23302;SDS011;11820;48.738;9.092;2023-05-01T13:36:17;9.17;;;7.47;;
23302;SDS011;11820;48.738;9.092;2023-05-01T13:38:44;7.40;;;6.70;;
23302;SDS011;11820;48.738;9.092;2023-05-01T13:41:19;6.87;;;6.27;;
23302;SDS011;11820;48.738;9.092;2023-05-01T13:43:49;7.03;;;6.33;;
23302;SDS011;11820;48.738;9.092;2023-05-01T13:46:16;7.07;;;6.40;;
23302;SDS011;11820;48.738;9.092;2023-05-01T13:48:43;8.10;;;7.37;;
23302;SDS011;11820;48.738;9.092;2023-05-01T13:51:10;13.00;;;8.87;;
23302;SDS011;11820;48.738;9.092;2023-05-01T13:53:37;10.90;;;8.80;;
23302;SDS011;11820;48.738;9.092;2023-05-01T13:56:04;10.63;;;9.50;;
23302;SDS011;11820;48.738;9.092;2023-05-01T13:58:34;14.73;;;9.53;;
23302;SDS011;11820;48.738;9.092;2023-05-01T14:00:59;12.73;;;9.73;;
23302;SDS011;11820;48.738;9.092;2023-05-01T14:03:25;14.17;;;11.20;;
23302;SDS011;11820;48.738;9.092;2023-05-01T14:05:50;20.10;;;16.80;;
23302;SDS011;11820;48.738;9.092;2023-05-01T14:08:19;21.93;;;18.50;;
23302;SDS011;11820;48.738;9.092;2023-05-01T14:10:46;15.80;;;14.13;;
23302;SDS011;11820;48.738;9.092;2023-05-01T14:13:11;14.43;;;12.97;;
23302;SDS011;11820;48.738;9.092;2023-05-01T14:15:40;12.90;;;10.87;;
23302;SDS011;11820;48.738;9.092;2023-05-01T14:18:14;10.87;;;9.77;;
23302;SDS011;11820;48.738;9.092;2023-05-01T14:20:43;9.70;;;8.83;;
23302;SDS011;11820;48.738;9.092;2023-05-01T14:23:12;9.63;;;8.73;;
23302;SDS011;11820;48.738;9.092;2023-05-01T14:25:40;9.53;;;7.50;;
23302;SDS011;11820;48.738;9.092;2023-05-01T14:28:08;8.13;;;6.60;;
23302;SDS011;11820;48.738;9.092;2023-05-01T14:30:36;7.70;;;7.00;;
23302;SDS011;11820;48.738;9.092;2023-05-01T14:33:03;10.33;;;8.70;;
23302;SDS011;11820;48.738;9.092;2023-05-01T14:35:29;8.20;;;7.50;;
23302;SDS011;11820;48.738;9.092;2023-05-01T14:37:56;7.70;;;7.00;;
23302;SDS011;11820;48.738;9.092;2023-05-01T14:40:32;7.90;;;7.10;;
23302;SDS011;11820;48.738;9.092;2023-05-01T14:42:58;7.77;;;6.93;;
23302;SDS011;11820;48.738;9.092;2023-05-01T14:45:24;10.33;;;9.20;;
23302;SDS011;11820;48.738;9.092;2023-05-01T14:47:49;9.97;;;8.97;;
23302;SDS011;11820;48.738;9.092;2023-05-01T14:50:21;10.20;;;9.30;;
23302;SDS011;11820;48.738;9.092;2023-05-01T14:52:54;10.10;;;9.20;;
23302;SDS011;11820;48.738;9.092;2023-05-01T14:55:27;9.20;;;8.40;;
23302;SDS011;11820;48.738;9.092;2023-05-01T14:57:56;10.00;;;9.00;;
23302;SDS011;11820;48.738;9.092;2023-05-01T15:00:22;9.40;;;8.60;;
23302;SDS011;11820;48.738;9.092;2023-05-01T15:02:48;10.77;;;9.80;;
23302;SDS011;11820;48.738;9.092;2023-05-01T15:05:14;11.07;;;9.97;;
23302;SDS011;11820;48.738;9.092;2023-05-01T15:07:40;10.30;;;9.40;;
23302;SDS011;11820;48.738;9.092;2023-05-01T15:10:06;10.73;;;9.70;;
23302;SDS011;11820;48.738;9.092;2023-05-01T15:12:32;11.63;;;10.30;;
23302;SDS011;11820;48.738;9.092;2023-05-01T15:14:57;10.70;;;9.67;;
23302;SDS011;11820;48.738;9.092;2023-05-01T15:17:22;8.97;;;7.67;;
23302;SDS011;11820;48.738;9.092;2023-05-01T15:19:48;7.57;;;6.73;;
23302;SDS011;11820;48.738;9.092;2023-05-01T15:22:13;7.17;;;6.47;;
23302;SDS011;11820;48.738;9.092;2023-05-01T15:24:38;6.77;;;6.17;;
23302;SDS011;11820;48.738;9.092;2023-05-01T15:27:04;6.90;;;6.30;;